createdAt,value
2018-10-21T00:00:07.360Z,89.60
2018-10-21T00:02:35.993Z,89.60
2018-10-21T00:05:04.629Z,89.50
2018-10-21T00:07:33.148Z,89.50
2018-10-21T00:10:01.654Z,89.40
2018-10-21T00:12:30.145Z,89.40
2018-10-21T00:14:58.752Z,89.80
2018-10-21T00:17:27.224Z,90.10
2018-10-21T00:19:55.684Z,90.10
2018-10-21T00:22:24.157Z,89.90
2018-10-21T00:24:52.841Z,89.80
2018-10-21T00:27:21.437Z,89.80
2018-10-21T00:29:49.888Z,89.80
2018-10-21T00:32:18.334Z,89.60
2018-10-21T00:34:46.796Z,89.50
2018-10-21T00:37:15.229Z,89.70
2018-10-21T00:39:43.685Z,89.40
2018-10-21T00:42:12.108Z,89.40
2018-10-21T00:44:40.554Z,89.40
2018-10-21T00:47:09.015Z,89.50
2018-10-21T00:52:06.254Z,89.70
2018-10-21T00:54:34.756Z,89.70
2018-10-21T00:57:03.242Z,89.70
2018-10-21T00:59:31.770Z,89.80
2018-10-21T01:02:00.236Z,90.00
2018-10-21T01:04:28.763Z,89.90
2018-10-21T01:06:57.196Z,89.80
2018-10-21T01:09:25.646Z,89.90
2018-10-21T01:11:54.074Z,89.90
2018-10-21T01:14:22.520Z,90.00
2018-10-21T01:19:19.108Z,90.00
2018-10-21T01:21:47.582Z,90.00
2018-10-21T01:24:16.032Z,90.10
2018-10-21T01:26:44.479Z,90.10
2018-10-21T01:29:12.914Z,90.00
2018-10-21T01:31:41.340Z,90.10
2018-10-21T01:34:09.790Z,90.10
2018-10-21T01:36:38.344Z,90.00
2018-10-21T01:39:09.034Z,90.00
2018-10-21T01:41:37.457Z,90.00
2018-10-21T01:44:06.000Z,90.10
2018-10-21T01:46:34.424Z,90.00
2018-10-21T01:49:02.897Z,90.10
2018-10-21T01:51:31.343Z,90.10
2018-10-21T01:53:59.792Z,90.10
2018-10-21T01:56:28.206Z,90.10
2018-10-21T01:58:56.693Z,90.20
2018-10-21T02:01:25.170Z,90.20
2018-10-21T02:03:53.651Z,90.20
2018-10-21T02:08:50.341Z,90.20
2018-10-21T02:11:18.788Z,90.10
2018-10-21T02:13:47.201Z,90.10
2018-10-21T02:16:15.655Z,90.10
2018-10-21T02:18:44.081Z,90.00
2018-10-21T02:21:12.586Z,90.10
2018-10-21T02:23:41.009Z,90.00
2018-10-21T02:26:09.499Z,90.00
2018-10-21T02:28:37.915Z,90.00
2018-10-21T02:31:06.386Z,90.00
2018-10-21T02:33:34.937Z,90.00
2018-10-21T02:36:03.405Z,90.00
2018-10-21T02:38:31.831Z,90.00
2018-10-21T02:41:21.323Z,89.90
2018-10-21T02:43:50.070Z,90.10
2018-10-21T02:46:18.944Z,90.10
2018-10-21T02:48:47.388Z,90.10
2018-10-21T02:51:15.865Z,90.10
2018-10-21T02:53:44.300Z,90.10
2018-10-21T02:56:12.856Z,90.10
2018-10-21T03:01:09.789Z,90.10
2018-10-21T03:03:38.885Z,90.30
2018-10-21T03:06:07.379Z,90.30
2018-10-21T03:08:36.266Z,90.20
2018-10-21T03:11:04.757Z,90.70
2018-10-21T03:13:33.301Z,90.50
2018-10-21T03:16:01.912Z,90.70
2018-10-21T03:18:30.625Z,90.70
2018-10-21T03:20:59.640Z,90.60
2018-10-21T03:23:28.033Z,90.50
2018-10-21T03:25:56.525Z,90.40
2018-10-21T03:28:24.948Z,90.30
2018-10-21T03:30:53.503Z,90.20
2018-10-21T03:33:21.964Z,90.20
2018-10-21T03:35:50.401Z,90.20
2018-10-21T03:40:46.956Z,90.50
2018-10-21T03:43:15.399Z,90.20
2018-10-21T03:45:43.885Z,90.30
2018-10-21T03:48:12.354Z,90.20
2018-10-21T03:50:40.908Z,90.20
2018-10-21T03:53:09.363Z,90.30
2018-10-21T03:55:39.895Z,90.20
2018-10-21T03:58:08.322Z,90.10
2018-10-21T04:03:05.887Z,90.30
2018-10-21T04:05:34.757Z,90.30
2018-10-21T04:08:03.400Z,90.40
2018-10-21T04:10:31.926Z,90.40
2018-10-21T04:13:00.707Z,90.30
2018-10-21T04:15:29.245Z,90.20
2018-10-21T04:17:57.872Z,90.20
2018-10-21T04:20:26.356Z,90.30
2018-10-21T04:23:03.876Z,90.30
2018-10-21T04:25:33.498Z,90.20
2018-10-21T04:28:02.969Z,90.10
2018-10-21T04:30:32.501Z,90.30
2018-10-21T04:33:09.028Z,90.80
2018-10-21T04:35:37.437Z,90.80
2018-10-21T04:38:24.488Z,90.50
2018-10-21T04:40:53.213Z,90.50
2018-10-21T04:43:21.717Z,90.50
2018-10-21T04:45:50.301Z,90.30
2018-10-21T04:48:18.806Z,90.30
2018-10-21T04:50:47.242Z,90.30
2018-10-21T04:53:15.768Z,90.50
2018-10-21T04:55:44.204Z,90.70
2018-10-21T04:58:12.760Z,90.80
2018-10-21T05:00:41.443Z,90.80
2018-10-21T05:03:09.845Z,90.90
2018-10-21T05:05:38.282Z,90.80
2018-10-21T05:10:38.984Z,91.30
2018-10-21T05:13:08.335Z,91.10
2018-10-21T05:15:38.015Z,91.10
2018-10-21T05:18:06.683Z,91.00
2018-10-21T05:20:35.223Z,90.90
2018-10-21T05:23:03.712Z,90.90
2018-10-21T05:28:00.351Z,91.10
2018-10-21T05:30:28.807Z,91.20
2018-10-21T05:35:25.376Z,91.10
2018-10-21T05:40:22.998Z,91.00
2018-10-21T05:42:51.780Z,90.90
2018-10-21T05:45:20.224Z,90.70
2018-10-21T05:47:48.804Z,90.80
2018-10-21T05:50:17.632Z,90.70
2018-10-21T05:52:46.319Z,90.60
2018-10-21T05:55:15.258Z,90.50
2018-10-21T05:57:43.742Z,90.50
2018-10-21T06:00:17.023Z,90.40
2018-10-21T06:02:45.498Z,90.30
2018-10-21T06:05:42.765Z,90.20
2018-10-21T06:08:11.323Z,90.10
2018-10-21T06:10:39.815Z,90.10
2018-10-21T06:13:08.436Z,90.00
2018-10-21T06:15:36.922Z,89.80
2018-10-21T06:18:07.717Z,89.60
2018-10-21T06:23:06.044Z,88.90
2018-10-21T06:25:34.495Z,88.70
2018-10-21T06:28:02.999Z,88.60
2018-10-21T06:30:31.444Z,88.80
2018-10-21T06:32:59.913Z,88.70
2018-10-21T06:35:28.368Z,88.60
2018-10-21T06:37:56.875Z,88.80
2018-10-21T06:40:25.300Z,88.30
2018-10-21T06:42:53.779Z,88.40
2018-10-21T06:47:50.417Z,88.00
2018-10-21T06:52:48.680Z,87.60
2018-10-21T06:55:17.124Z,87.30
2018-10-21T06:57:46.123Z,87.00
2018-10-21T07:00:14.539Z,87.30
2018-10-21T07:02:42.960Z,87.00
2018-10-21T07:05:23.145Z,86.30
2018-10-21T07:07:52.117Z,86.30
2018-10-21T07:10:21.024Z,85.50
2018-10-21T07:12:49.630Z,85.50
2018-10-21T07:15:18.495Z,85.50
2018-10-21T07:17:46.888Z,85.60
2018-10-21T07:20:15.395Z,85.80
2018-10-21T07:22:44.610Z,85.50
2018-10-21T07:25:13.117Z,85.20
2018-10-21T07:27:41.782Z,84.90
2018-10-21T07:30:11.838Z,83.10
2018-10-21T07:32:41.241Z,83.70
2018-10-21T07:35:11.741Z,83.70
2018-10-21T07:37:40.908Z,82.90
2018-10-21T07:40:10.208Z,82.70
2018-10-21T07:42:38.621Z,83.00
2018-10-21T07:47:35.224Z,82.50
2018-10-21T07:50:03.799Z,81.30
2018-10-21T07:52:32.206Z,81.30
2018-10-21T07:55:00.730Z,81.40
2018-10-21T07:57:29.178Z,81.60
2018-10-21T07:59:57.637Z,81.60
2018-10-21T08:02:26.111Z,81.50
2018-10-21T08:07:33.751Z,81.20
2018-10-21T08:10:02.263Z,81.40
2018-10-21T08:12:30.684Z,81.30
2018-10-21T08:14:59.160Z,81.00
2018-10-21T08:17:27.576Z,81.00
2018-10-21T08:19:56.022Z,80.30
2018-10-21T08:22:24.515Z,77.60
2018-10-21T08:24:53.418Z,76.30
2018-10-21T08:28:24.505Z,77.10
2018-10-21T08:30:53.120Z,75.60
2018-10-21T08:33:21.554Z,75.40
2018-10-21T08:35:50.002Z,75.80
2018-10-21T08:38:18.468Z,75.70
2018-10-21T08:40:46.945Z,72.70
2018-10-21T08:43:15.392Z,73.00
2018-10-21T08:48:11.969Z,73.50
2018-10-21T08:50:40.408Z,73.40
2018-10-21T08:53:08.885Z,73.00
2018-10-21T08:55:37.406Z,72.40
2018-10-21T08:58:05.877Z,71.30
2018-10-21T09:00:34.352Z,69.50
2018-10-21T09:03:02.764Z,70.30
2018-10-21T09:05:31.202Z,69.90
2018-10-21T09:07:59.636Z,68.60
2018-10-21T09:10:28.171Z,68.50
2018-10-21T09:12:56.643Z,68.90
2018-10-21T09:15:25.084Z,68.90
2018-10-21T09:17:53.517Z,68.30
2018-10-21T09:20:21.985Z,66.20
2018-10-21T09:22:50.420Z,63.00
2018-10-21T09:25:18.946Z,63.00
2018-10-21T09:27:47.373Z,62.10
2018-10-21T09:30:16.693Z,61.40
2018-10-21T09:32:45.114Z,57.80
2018-10-21T09:35:14.973Z,57.60
2018-10-21T09:37:43.828Z,58.70
2018-10-21T09:40:17.949Z,58.90
2018-10-21T09:42:46.923Z,56.20
2018-10-21T09:45:16.809Z,55.70
2018-10-21T09:47:45.572Z,56.10
2018-10-21T09:50:14.207Z,59.30
2018-10-21T09:52:42.835Z,60.80
2018-10-21T09:55:16.633Z,60.60
2018-10-21T09:57:45.812Z,61.50
2018-10-21T10:00:18.453Z,63.80
2018-10-21T10:02:52.068Z,65.80
2018-10-21T10:05:20.576Z,64.30
2018-10-21T10:07:48.990Z,65.30
2018-10-21T10:10:17.412Z,67.20
2018-10-21T10:12:45.877Z,68.10
2018-10-21T10:15:14.301Z,68.80
2018-10-21T10:17:42.832Z,68.20
2018-10-21T10:20:11.601Z,65.20
2018-10-21T10:22:40.096Z,62.30
2018-10-21T10:25:09.689Z,58.90
2018-10-21T10:27:38.124Z,59.20
2018-10-21T10:30:08.383Z,58.20
2018-10-21T10:32:37.031Z,58.40
2018-10-21T10:35:06.185Z,58.70
2018-10-21T10:37:34.807Z,58.70
2018-10-21T10:40:03.339Z,56.40
2018-10-21T10:42:31.787Z,55.50
2018-10-21T10:45:00.231Z,57.70
2018-10-21T10:47:28.697Z,60.20
2018-10-21T10:49:57.232Z,60.60
2018-10-21T10:52:25.688Z,63.80
2018-10-21T10:54:54.287Z,63.30
2018-10-21T10:57:22.897Z,62.90
2018-10-21T10:59:51.541Z,62.90
2018-10-21T11:02:19.875Z,63.40
2018-10-21T11:04:48.383Z,64.00
2018-10-21T11:07:17.145Z,63.70
2018-10-21T11:09:45.484Z,63.70
2018-10-21T11:12:13.983Z,63.70
2018-10-21T11:14:42.493Z,63.50
2018-10-21T11:17:11.087Z,63.40
2018-10-21T11:19:39.514Z,62.60
2018-10-21T11:22:08.042Z,63.10
2018-10-21T11:24:41.777Z,62.80
2018-10-21T11:27:10.228Z,63.00
2018-10-21T11:29:38.624Z,63.10
2018-10-21T11:32:07.124Z,62.60
2018-10-21T11:34:35.673Z,62.80
2018-10-21T11:37:04.181Z,63.00
2018-10-21T11:39:32.595Z,63.10
2018-10-21T11:42:01.065Z,63.50
2018-10-21T11:44:29.503Z,63.70
2018-10-21T11:46:57.939Z,64.00
2018-10-21T11:49:26.395Z,63.20
2018-10-21T11:51:54.857Z,64.10
2018-10-21T11:54:23.287Z,64.60
2018-10-21T11:56:51.747Z,64.60
2018-10-21T11:59:20.192Z,65.10
2018-10-21T12:01:48.623Z,64.90
2018-10-21T12:04:17.118Z,65.40
2018-10-21T12:06:45.715Z,65.60
2018-10-21T12:09:14.212Z,65.20
2018-10-21T12:11:42.683Z,64.60
2018-10-21T12:14:11.452Z,64.60
2018-10-21T12:16:40.126Z,64.80
2018-10-21T12:19:08.615Z,65.10
2018-10-21T12:21:37.073Z,65.50
2018-10-21T12:24:06.057Z,65.50
2018-10-21T12:26:34.532Z,65.50
2018-10-21T12:29:03.441Z,65.80
2018-10-21T12:31:31.872Z,65.90
2018-10-21T12:34:00.331Z,65.90
2018-10-21T12:36:28.808Z,65.90
2018-10-21T12:38:57.288Z,65.20
2018-10-21T12:41:25.731Z,64.50
2018-10-21T12:43:54.251Z,64.60
2018-10-21T12:46:22.665Z,64.60
2018-10-21T12:48:51.159Z,65.20
2018-10-21T12:51:19.605Z,65.40
2018-10-21T12:53:48.035Z,65.30
2018-10-21T12:56:16.496Z,65.90
2018-10-21T12:58:44.961Z,66.30
2018-10-21T13:01:13.532Z,66.90
2018-10-21T13:03:41.808Z,67.40
2018-10-21T13:08:38.376Z,66.70
2018-10-21T13:11:06.788Z,67.10
2018-10-21T13:13:35.363Z,67.40
2018-10-21T13:16:04.157Z,68.40
2018-10-21T13:18:32.548Z,68.90
2018-10-21T13:21:01.059Z,68.80
2018-10-21T13:23:29.488Z,68.60
2018-10-21T13:25:57.941Z,68.20
2018-10-21T13:28:26.514Z,67.80
2018-10-21T13:30:54.865Z,67.10
2018-10-21T13:33:23.261Z,66.90
2018-10-21T13:35:51.756Z,67.00
2018-10-21T13:38:20.168Z,66.50
2018-10-21T13:40:48.638Z,65.10
2018-10-21T13:43:17.239Z,65.10
2018-10-21T13:45:45.699Z,64.90
2018-10-21T13:48:14.138Z,65.20
2018-10-21T13:50:42.636Z,65.20
2018-10-21T13:53:11.207Z,65.20
2018-10-21T13:55:39.534Z,63.40
2018-10-21T13:58:08.086Z,63.50
2018-10-21T14:00:36.599Z,63.80
2018-10-21T14:03:05.006Z,63.80
2018-10-21T14:05:33.490Z,63.70
2018-10-21T14:08:02.066Z,63.40
2018-10-21T14:10:32.366Z,63.80
2018-10-21T14:13:00.837Z,63.40
2018-10-21T14:15:29.301Z,64.00
2018-10-21T14:17:57.732Z,63.80
2018-10-21T14:20:26.253Z,64.20
2018-10-21T14:22:54.679Z,64.50
2018-10-21T14:25:23.159Z,64.50
2018-10-21T14:27:51.591Z,64.70
2018-10-21T14:30:20.087Z,64.80
2018-10-21T14:32:48.523Z,64.70
2018-10-21T14:35:16.973Z,64.70
2018-10-21T14:37:45.420Z,65.20
2018-10-21T14:40:14.321Z,65.30
2018-10-21T14:42:42.735Z,65.30
2018-10-21T14:45:12.339Z,65.50
2018-10-21T14:52:38.115Z,65.70
2018-10-21T14:55:08.149Z,65.70
2018-10-21T14:57:36.899Z,66.10
2018-10-21T15:00:07.522Z,66.20
2018-10-21T15:02:35.902Z,66.00
2018-10-21T15:05:05.644Z,65.90
2018-10-21T15:07:34.095Z,66.00
2018-10-21T15:10:02.637Z,66.10
2018-10-21T15:12:31.045Z,66.20
2018-10-21T15:14:59.484Z,66.30
2018-10-21T15:17:27.917Z,66.70
2018-10-21T15:19:56.450Z,66.60
2018-10-21T15:22:24.879Z,66.80
2018-10-21T15:27:21.449Z,67.10
2018-10-21T15:32:18.152Z,67.80
2018-10-21T15:34:46.572Z,68.00
2018-10-21T15:37:15.025Z,68.30
2018-10-21T15:39:43.470Z,68.60
2018-10-21T15:42:11.964Z,68.80
2018-10-21T15:44:40.392Z,69.10
2018-10-21T15:47:08.921Z,69.60
2018-10-21T15:49:37.352Z,69.50
2018-10-21T15:52:05.835Z,69.50
2018-10-21T15:54:34.268Z,69.60
2018-10-21T15:57:02.701Z,69.80
2018-10-21T15:59:31.160Z,69.90
2018-10-21T16:01:59.631Z,69.90
2018-10-21T16:04:28.104Z,69.90
2018-10-21T16:06:56.602Z,70.10
2018-10-21T16:09:25.275Z,70.40
2018-10-21T16:11:53.700Z,70.40
2018-10-21T16:14:22.184Z,71.30
2018-10-21T16:16:50.616Z,71.20
2018-10-21T16:19:19.181Z,72.00
2018-10-21T16:21:47.695Z,72.30
2018-10-21T16:24:16.136Z,72.50
2018-10-21T16:26:44.611Z,73.30
2018-10-21T16:29:13.144Z,73.30
2018-10-21T16:31:41.649Z,73.50
2018-10-21T16:34:10.050Z,74.20
2018-10-21T16:36:38.520Z,74.10
2018-10-21T16:39:09.119Z,75.10
2018-10-21T16:41:37.593Z,75.20
2018-10-21T16:44:06.099Z,75.50
2018-10-21T16:46:34.591Z,75.70
2018-10-21T16:49:03.044Z,75.90
2018-10-21T16:51:31.539Z,76.00
2018-10-21T16:53:59.949Z,76.50
2018-10-21T16:56:28.402Z,76.70
2018-10-21T17:01:25.138Z,76.50
2018-10-21T17:03:53.564Z,76.60
2018-10-21T17:06:22.006Z,76.70
2018-10-21T17:08:50.428Z,76.80
2018-10-21T17:11:18.875Z,76.90
2018-10-21T17:13:47.297Z,76.70
2018-10-21T17:16:15.925Z,76.70
2018-10-21T17:18:44.315Z,76.30
2018-10-21T17:21:12.785Z,76.50
2018-10-21T17:23:41.244Z,76.70
2018-10-21T17:26:09.693Z,76.90
2018-10-21T17:31:06.256Z,77.60
2018-10-21T17:33:34.700Z,77.80
2018-10-21T17:36:03.096Z,77.70
2018-10-21T17:38:31.544Z,77.70
2018-10-21T17:40:59.991Z,78.10
2018-10-21T17:43:28.446Z,78.20
2018-10-21T17:45:56.953Z,78.10
2018-10-21T17:48:25.400Z,78.00
2018-10-21T17:50:53.843Z,77.80
2018-10-21T17:53:22.290Z,78.00
2018-10-21T17:55:50.740Z,78.10
2018-10-21T17:58:19.237Z,78.10
2018-10-21T18:00:47.633Z,78.40
2018-10-21T18:03:16.085Z,78.60
2018-10-21T18:05:44.508Z,78.70
2018-10-21T18:08:12.955Z,78.80
2018-10-21T18:13:09.579Z,78.70
2018-10-21T18:15:37.952Z,79.00
2018-10-21T18:18:06.493Z,79.10
2018-10-21T18:20:35.022Z,79.10
2018-10-21T18:23:03.508Z,79.10
2018-10-21T18:25:31.911Z,79.10
2018-10-21T18:28:00.442Z,79.40
2018-10-21T18:30:28.824Z,79.40
2018-10-21T18:32:57.274Z,79.50
2018-10-21T18:35:25.716Z,79.70
2018-10-21T18:37:54.146Z,79.80
2018-10-21T18:40:22.761Z,79.90
2018-10-21T18:42:51.172Z,80.10
2018-10-21T18:45:19.556Z,80.40
2018-10-21T18:50:16.378Z,80.50
2018-10-21T18:52:45.040Z,80.60
2018-10-21T18:55:13.845Z,80.90
2018-10-21T18:57:42.230Z,81.00
2018-10-21T19:02:40.421Z,80.80
2018-10-21T19:05:09.343Z,80.50
2018-10-21T19:07:38.094Z,80.60
2018-10-21T19:10:08.376Z,81.00
2018-10-21T19:12:36.761Z,81.40
2018-10-21T19:15:05.624Z,81.70
2018-10-21T19:17:34.095Z,81.90
2018-10-21T19:20:02.589Z,82.30
2018-10-21T19:22:31.029Z,82.40
2018-10-21T19:24:59.519Z,82.40
2018-10-21T19:27:27.936Z,82.50
2018-10-21T19:29:56.399Z,82.70
2018-10-21T19:32:24.859Z,82.90
2018-10-21T19:34:53.312Z,83.10
2018-10-21T19:37:21.723Z,83.10
2018-10-21T19:39:50.366Z,83.20
2018-10-21T19:44:46.958Z,83.20
2018-10-21T19:47:15.406Z,83.20
2018-10-21T19:49:43.877Z,83.30
2018-10-21T19:52:12.308Z,83.40
2018-10-21T19:54:40.741Z,83.50
2018-10-21T19:57:09.140Z,83.70
2018-10-21T19:59:37.626Z,83.90
2018-10-21T20:02:06.224Z,84.10
2018-10-21T20:04:34.702Z,84.30
2018-10-21T20:07:03.171Z,84.40
2018-10-21T20:09:31.597Z,84.50
2018-10-21T20:12:00.055Z,84.60
2018-10-21T20:14:28.508Z,84.70
2018-10-21T20:16:56.892Z,84.90
2018-10-21T20:19:25.329Z,85.10
2018-10-21T20:21:53.878Z,85.10
2018-10-21T20:24:22.292Z,84.90
2018-10-21T20:26:50.746Z,84.80
2018-10-21T20:29:19.303Z,85.10
2018-10-21T20:31:47.745Z,85.20
2018-10-21T20:34:16.276Z,85.20
2018-10-21T20:36:44.624Z,85.20
2018-10-21T20:39:13.069Z,85.20
2018-10-21T20:41:41.486Z,85.10
2018-10-21T20:44:09.880Z,85.30
2018-10-21T20:46:38.320Z,85.40
2018-10-21T20:49:06.778Z,85.40
2018-10-21T20:51:35.426Z,85.50
2018-10-21T20:54:03.870Z,85.50
2018-10-21T20:56:32.292Z,85.50
2018-10-21T20:59:00.736Z,85.40
2018-10-21T21:01:29.172Z,85.40
2018-10-21T21:03:57.612Z,85.50
2018-10-21T21:06:26.095Z,85.60
2018-10-21T21:08:54.513Z,85.90
2018-10-21T21:11:22.940Z,86.00
2018-10-21T21:13:51.352Z,86.00
2018-10-21T21:16:19.867Z,85.80
2018-10-21T21:18:48.292Z,85.70
2018-10-21T21:21:16.811Z,85.40
2018-10-21T21:23:45.225Z,85.40
2018-10-21T21:26:13.657Z,85.40
2018-10-21T21:28:42.071Z,85.50
2018-10-21T21:31:10.520Z,85.50
2018-10-21T21:33:38.934Z,85.70
2018-10-21T21:36:07.469Z,85.90
2018-10-21T21:38:35.924Z,86.10
2018-10-21T21:41:04.388Z,86.30
2018-10-21T21:43:32.843Z,86.30
2018-10-21T21:46:01.377Z,86.50
2018-10-21T21:48:29.786Z,86.30
2018-10-21T21:50:58.271Z,86.20
2018-10-21T21:53:26.672Z,86.30
2018-10-21T21:55:55.108Z,86.50
2018-10-21T21:58:23.508Z,86.60
2018-10-21T22:00:51.980Z,86.70
2018-10-21T22:03:20.452Z,86.60
2018-10-21T22:05:48.944Z,86.70
2018-10-21T22:08:17.385Z,86.60
2018-10-21T22:10:45.837Z,86.50
2018-10-21T22:13:14.314Z,86.20
2018-10-21T22:15:42.887Z,85.80
2018-10-21T22:18:11.371Z,85.50
2018-10-21T22:20:39.861Z,85.30
2018-10-21T22:23:08.283Z,85.20
2018-10-21T22:25:36.700Z,85.30
2018-10-21T22:28:05.500Z,85.10
2018-10-21T22:30:33.885Z,85.20
2018-10-21T22:33:02.337Z,85.20
2018-10-21T22:35:30.781Z,84.90
2018-10-21T22:37:59.280Z,84.80
2018-10-21T22:40:27.727Z,84.90
2018-10-21T22:42:56.203Z,84.90
2018-10-21T22:45:24.612Z,84.80
2018-10-21T22:47:53.088Z,84.80
2018-10-21T22:50:21.517Z,84.80
2018-10-21T22:52:49.980Z,84.80
2018-10-21T22:55:18.399Z,84.80
2018-10-21T22:57:46.843Z,84.80
2018-10-21T23:00:15.323Z,84.80
2018-10-21T23:02:45.052Z,84.90
2018-10-21T23:05:13.460Z,84.90
2018-10-21T23:07:41.909Z,85.30
2018-10-21T23:10:10.409Z,85.40
2018-10-21T23:12:38.794Z,85.30
2018-10-21T23:15:07.545Z,85.50
2018-10-21T23:17:35.996Z,85.50
2018-10-21T23:20:04.749Z,85.50
2018-10-21T23:22:33.276Z,85.60
2018-10-21T23:25:01.707Z,85.60
2018-10-21T23:27:30.190Z,85.50
2018-10-21T23:29:58.686Z,85.40
2018-10-21T23:32:27.121Z,85.50
2018-10-21T23:34:55.542Z,85.40
2018-10-21T23:37:24.031Z,85.50
2018-10-21T23:39:52.494Z,85.40
2018-10-21T23:42:20.944Z,85.40
2018-10-21T23:44:49.357Z,85.30
2018-10-21T23:47:17.800Z,85.20
2018-10-21T23:49:46.242Z,85.50
2018-10-21T23:52:15.686Z,85.70
2018-10-21T23:54:44.000Z,85.70
2018-10-21T23:57:12.450Z,85.90
2018-10-21T23:59:40.872Z,85.60
